• Join FlightAware (Why Join?)
  • Login
  • US Flag 
03:52AM EDT


 

Airport Tracker/Info


-or-


 

Live Flight TrackerFlight Track Log ✈ UPS56 ✈ 06-May-2013 ✈ KSDF - PANC

Flight Track Log - Related Links

Times and Time Zones

All times are in EDT time to prevent confusion due to time zone crossing. See the UPS56 flight status page for this flight to view local times or setup timezone preferences in your user account.

Time Position Orientation Groundspeed Altitude Reporting Facility
EDT Latitude Longitude Course Direction KTS MPH feet Rate Location/Type
02:32AM 38.1480 -85.7370 180° South 173 199 1,400  Level FlightAware
02:33AM 38.1270 -85.7410 189° South 176 203 2,400 1,920 Climbing FlightAware
02:33AM 38.1020 -85.7500 196° South 182 209 3,200 1,680 Climbing FlightAware
02:34AM 38.0790 -85.7650 207° Southwest 200 230 4,100 1,620 Climbing FlightAware
02:34AM 38.0740 -85.7750 238° Southwest 212 244 4,300 720 Climbing FlightAware
02:34AM 38.0720 -85.7910 261° West 229 264 4,400 1,020 Climbing FlightAware
02:35AM 38.0870 -85.8320 295° West 260 299 5,100 1,260 Climbing FlightAware
02:35AM 38.1190 -85.8600 325° Northwest 285 328 5,700 1,800 Climbing FlightAware
02:36AM 38.1470 -85.8840 326° Northwest 294 338 6,800 2,580 Climbing FlightAware
02:36AM 38.1800 -85.9160 323° Northwest 300 345 8,100 2,580 Climbing FlightAware
02:37AM 38.2060 -85.9440 320° Northwest 307 353 9,200 2,220 Climbing FlightAware
02:37AM 38.2230 -85.9640 317° Northwest 318 366 9,600 1,680 Climbing FlightAware
02:38AM 38.2730 -86.0240 317° Northwest 354 407 10,900 1,680 Climbing FlightAware
02:38AM 38.3230 -86.0850 316° Northwest 388 447 12,000 1,620 Climbing FlightAware
02:39AM 38.3770 -86.1460 318° Northwest 422 486 13,100 2,580 Climbing FlightAware
02:40AM 38.4440 -86.2260 317° Northwest 428 493 15,700 3,000 Climbing FlightAware
02:40AM 38.5030 -86.2970 317° Northwest 444 511 17,400 2,160 Climbing FlightAware
02:41AM 38.5600 -86.3650 317° Northwest 465 535 18,600 1,860 Climbing FlightAware
02:42AM 38.6380 -86.4590 317° Northwest 492 566 20,100 2,220 Climbing FlightAware
02:42AM 38.7070 -86.5430 316° Northwest 505 581 21,800 2,400 Climbing FlightAware
02:43AM 38.7720 -86.6220 317° Northwest 514 592 23,300 2,280 Climbing FlightAware
02:44AM 38.8540 -86.7210 317° Northwest 524 603 25,100 2,160 Climbing FlightAware
02:45AM 38.9310 -86.8150 316° Northwest 532 612 26,600 2,040 Climbing FlightAware
02:45AM 39.0020 -86.9020 316° Northwest 538 619 28,000 2,040 Climbing FlightAware
02:46AM 39.0860 -87.0050 316° Northwest 542 624 29,500 2,160 Climbing FlightAware
02:47AM 39.1570 -87.0930 316° Northwest 537 618 31,100 2,400 Climbing FlightAware
02:47AM 39.2290 -87.1820 316° Northwest 529 609 32,700 2,040 Climbing FlightAware
02:48AM 39.3060 -87.2760 317° Northwest 521 600 34,000 960 Climbing FlightAware
02:49AM 39.3620 -87.3460 316° Northwest 520 598 34,000  Level FlightAware
02:50AM 39.4550 -87.4610 316° Northwest 517 595 34,000  Level FlightAware
02:50AM 39.5220 -87.5440 316° Northwest 515 593 34,000  Level FlightAware
02:51AM 39.5900 -87.6300 316° Northwest 514 592 34,000  Level FlightAware
02:52AM 39.6690 -87.7290 316° Northwest 513 590 34,000  Level FlightAware
02:52AM 39.7380 -87.8160 316° Northwest 514 592 34,000  Level FlightAware
02:53AM 39.8030 -87.8980 316° Northwest 515 593 34,000  Level FlightAware
02:54AM 39.8720 -87.9860 316° Northwest 517 595 34,000  Level FlightAware
02:54AM 39.9510 -88.0850 316° Northwest 518 596 34,000  Level FlightAware
02:55AM 40.0250 -88.1800 316° Northwest 516 594 34,000  Level FlightAware
02:56AM 40.0940 -88.2680 316° Northwest 516 594 34,000  Level FlightAware
02:57AM 40.1730 -88.3700 315° West 516 594 34,000  Level FlightAware
02:57AM 40.2310 -88.4440 316° Northwest 516 594 34,000  Level FlightAware
02:58AM 40.3060 -88.5410 315° West 516 594 34,000  Level FlightAware
02:59AM 40.3830 -88.6410 315° West 514 592 34,000  Level FlightAware
02:59AM 40.4520 -88.7300 316° Northwest 511 588 34,000  Level FlightAware
03:00AM 40.5160 -88.8130 315° West 509 586 34,000  Level FlightAware
03:01AM 40.5910 -88.9110 315° West 507 583 34,000  Level FlightAware
03:01AM 40.6590 -89.0000 315° West 507 583 34,000  Level FlightAware
03:02AM 40.7330 -89.0980 315° West 508 585 34,000  Level FlightAware
03:03AM 40.8010 -89.1880 315° West 509 586 34,000  Level FlightAware
03:03AM 40.8650 -89.2720 315° West 510 587 34,000  Level FlightAware
03:04AM 40.9400 -89.3720 315° West 511 588 34,000  Level FlightAware
03:05AM 41.0080 -89.4610 315° West 512 589 34,000  Level FlightAware
03:06AM 41.0820 -89.5610 314° West 514 592 34,000  Level FlightAware
03:06AM 41.1470 -89.6480 315° West 516 594 34,000  Level FlightAware
03:07AM 41.2250 -89.7530 315° West 514 592 34,000  Level FlightAware
03:08AM 41.2920 -89.8430 315° West 512 589 34,000  Level FlightAware
03:08AM 41.3550 -89.9280 315° West 511 588 34,000  Level FlightAware
03:09AM 41.4250 -90.0230 315° West 509 586 34,000  Level FlightAware
03:10AM 41.5000 -90.1250 314° West 507 583 34,000  Level FlightAware
03:10AM 41.5660 -90.2150 314° West 507 583 34,000  Level FlightAware
03:11AM 41.6380 -90.3140 314° West 505 581 34,000  Level FlightAware
03:12AM 41.7040 -90.4050 314° West 504 580 34,000  Level FlightAware
03:13AM 41.7680 -90.4940 314° West 502 578 34,000  Level FlightAware
03:13AM 41.8400 -90.5930 314° West 501 577 34,000  Level FlightAware
03:14AM 41.9040 -90.6820 314° West 499 574 34,000  Level FlightAware
03:15AM 41.9770 -90.7830 314° West 498 573 34,000  Level FlightAware
03:15AM 42.0380 -90.8700 313° West 498 573 34,000  Level FlightAware
03:16AM 42.0950 -90.9480 315° West 499 574 34,000  Level FlightAware
03:17AM 42.1760 -91.0630 314° West 499 574 34,000  Level FlightAware
03:17AM 42.2350 -91.1460 314° West 500 575 34,000  Level FlightAware
03:18AM 42.3010 -91.2390 314° West 500 575 34,000  Level FlightAware
03:19AM 42.3720 -91.3410 313° West 500 575 34,000  Level FlightAware
03:20AM 42.4440 -91.4430 314° West 500 575 34,000  Level FlightAware
03:20AM 42.5050 -91.5300 314° West 499 574 34,000  Level FlightAware
03:21AM 42.5790 -91.6370 313° West 499 574 34,000  Level FlightAware
03:22AM 42.6450 -91.7310 314° West 499 574 34,000  Level FlightAware
03:22AM 42.7050 -91.8180 313° West 499 574 34,000  Level FlightAware
03:23AM 42.7770 -91.9220 313° West 498 573 34,000  Level FlightAware
03:24AM 42.8410 -92.0150 313° West 498 573 34,000  Level FlightAware
03:24AM 42.9010 -92.1030 313° West 498 573 34,000  Level FlightAware
03:25AM 42.9980 -92.2460 313° West 497 572 34,000  Level FlightAware
03:26AM 43.0610 -92.3380 313° West 494 568 34,000  Level FlightAware
03:27AM 43.1280 -92.4370 313° West 492 566 34,000  Level FlightAware
03:28AM 43.1910 -92.5300 313° West 493 567 34,000  Level FlightAware
03:28AM 43.2510 -92.6200 312° West 493 567 34,000 180 Level FlightAware
03:29AM 43.3130 -92.7130 313° West 495 570 34,300 1,020 Climbing FlightAware
03:30AM 43.3830 -92.8170 313° West 491 565 35,500 1,080 Climbing FlightAware
03:30AM 43.4510 -92.9190 313° West 496 571 36,000 360 Climbing FlightAware
03:31AM 43.5070 -93.0030 313° West 496 571 36,000  Level FlightAware
03:32AM 43.5750 -93.1050 313° West 496 571 36,000  Level FlightAware
03:32AM 43.6370 -93.1990 312° West 496 571 36,000  Level FlightAware
03:33AM 43.7090 -93.3090 312° West 496 571 36,000  Level FlightAware
03:34AM 43.7760 -93.4110 312° West 495 570 36,000  Level FlightAware
03:35AM 43.8370 -93.5050 312° West 493 567 36,000  Level FlightAware
03:35AM 43.8970 -93.5980 312° West 492 566 36,000  Level FlightAware
03:36AM 43.9680 -93.7070 312° West 490 564 36,000  Level FlightAware
03:37AM 44.0280 -93.8010 312° West 490 564 36,000  Level FlightAware
03:37AM 44.0880 -93.8920 313° West 489 563 36,000  Level FlightAware
03:38AM 44.1550 -93.9980 311° West 489 563 36,000  Level FlightAware
03:39AM 44.2170 -94.0950 312° West 490 564 36,000  Level FlightAware
03:39AM 44.2840 -94.2000 312° West 490 564 36,000  Level FlightAware
03:40AM 44.3430 -94.2930 312° West 489 563 36,000  Level FlightAware
03:41AM 44.4030 -94.3880 311° West 489 563 36,000  Level FlightAware
03:42AM 44.4720 -94.4980 311° West 488 562 36,000  Level FlightAware
03:42AM 44.5320 -94.5920 312° West 489 563 36,000  Level FlightAware
03:43AM 44.5770 -94.6640 311° West 489 563 36,000  Level FlightAware
03:43AM 44.6340 -94.7550 311° West 489 563 36,000  Level FlightAware
03:44AM 44.6940 -94.8520 311° West 489 563 36,000  Level FlightAware
03:45AM 44.7660 -94.9590 313° West 490 564 36,000  Level FlightAware
03:46AM 44.8340 -95.0570 314° West 489 563 36,000  Level FlightAware
03:46AM 44.8990 -95.1500 315° West 489 563 36,000  Level FlightAware
03:47AM 44.9600 -95.2400 314° West 489 563 36,000  Level FlightAware
03:48AM 45.0320 -95.3470 314° West 488 562 36,000  Level FlightAware
03:48AM 45.0950 -95.4410 314° West 488 562 36,000  Level FlightAware
03:49AM 45.1630 -95.5410 314° West 488 562 36,000  Level FlightAware
03:50AM 45.2250 -95.6340 313° West 488 562 36,000  Level FlightAware
03:50AM 45.2940 -95.7380 313° West 488 562 36,000  Level FlightAware
03:51AM 45.3580 -95.8340 314° West 489 563 36,000  Level FlightAware
03:52AM 45.4210 -95.9290 313° West 490 564 36,000  Level FlightAware
03:52AM 45.4730 -96.0070 314° West 490 564 36,000  Level FlightAware
03:53AM 45.5510 -96.1260 313° West 490 564 36,000  Level FlightAware
03:54AM 45.6120 -96.2190 313° West 491 565 36,000  Level FlightAware
03:55AM 45.6830 -96.3280 313° West 490 564 36,000  Level FlightAware
03:55AM 45.7450 -96.4220 313° West 489 563 36,000  Level FlightAware
03:56AM 45.8130 -96.5280 313° West 489 563 36,000  Level FlightAware
03:57AM 45.8740 -96.6220 313° West 488 562 36,000  Level FlightAware
03:57AM 45.9450 -96.7320 313° West 488 562 36,000  Level FlightAware
03:58AM 46.0040 -96.8230 313° West 487 560 36,000  Level FlightAware
03:59AM 46.0660 -96.9220 312° West 487 560 36,000  Level FlightAware
04:00AM 46.1340 -97.0270 313° West 488 562 36,000  Level FlightAware
04:00AM 46.1930 -97.1210 312° West 487 560 36,000  Level FlightAware
04:01AM 46.2640 -97.2330 313° West 489 563 36,000  Level FlightAware
04:02AM 46.3110 -97.3080 312° West 489 563 36,000  Level FlightAware
04:02AM 46.3860 -97.4270 312° West 491 565 36,000  Level FlightAware
04:03AM 46.4520 -97.5320 312° West 492 566 36,000  Level FlightAware
04:04AM 46.5150 -97.6330 312° West 491 565 36,000  Level FlightAware
04:04AM 46.5840 -97.7440 312° West 490 564 36,000  Level FlightAware
04:05AM 46.6390 -97.8340 312° West 490 564 36,000  Level FlightAware
04:06AM 46.7050 -97.9400 312° West 489 563 36,000  Level FlightAware
04:07AM 46.7700 -98.0470 312° West 488 562 36,000  Level FlightAware
04:07AM 46.8320 -98.1470 312° West 488 562 36,000  Level FlightAware
04:08AM 46.9110 -98.2790 311° West 488 562 36,000  Level FlightAware
04:09AM 46.9620 -98.3640 311° West 488 562 36,000  Level FlightAware
04:09AM 47.0300 -98.4740 312° West 488 562 36,000  Level FlightAware
04:10AM 47.0900 -98.5760 311° West 488 562 36,000  Level FlightAware
04:11AM 47.1410 -98.6620 311° West 488 562 36,000  Level FlightAware
04:12AM 47.2180 -98.7890 312° West 487 560 36,000  Level FlightAware
04:12AM 47.2680 -98.8740 311° West 487 560 36,000  Level FlightAware
04:13AM 47.3190 -98.9600 311° West 487 560 36,000  Level FlightAware
04:14AM 47.4050 -99.1030 312° West 485 558 36,000  Level FlightAware
04:14AM 47.4550 -99.1890 311° West 485 558 36,000  Level FlightAware
04:15AM 47.5050 -99.2740 311° West 485 558 36,000  Level FlightAware
04:16AM 47.5670 -99.3800 311° West 485 558 36,000  Level FlightAware
04:17AM 47.6170 -99.4660 311° West 485 558 36,000  Level FlightAware
04:17AM 47.6670 -99.5510 311° West 485 558 36,000  Level FlightAware
04:18AM 47.7750 -99.7390 311° West 481 554 36,000  Level FlightAware
04:19AM 47.8380 -99.8490 310° West 486 559 36,000  Level FlightAware
04:19AM 47.9020 -99.9610 310° West 490 564 36,000  Level FlightAware
04:20AM 47.9610 -100.0660 310° West 492 566 36,000  Level FlightAware
04:21AM 48.0270 -100.1820 310° West 496 571 36,000  Level FlightAware
04:21AM 48.0820 -100.2790 310° West 496 571 36,000  Level FlightAware
04:22AM 48.1320 -100.3690 310° West 496 571 36,000  Level FlightAware
04:23AM 48.2110 -100.5080 310° West 496 571 36,000  Level FlightAware
04:23AM 48.2590 -100.5960 309° West 496 571 36,000  Level FlightAware
04:24AM 48.3210 -100.7050 311° West 497 572 36,000  Level FlightAware
04:25AM 48.3790 -100.8110 310° West 498 573 36,000  Level FlightAware
04:26AM 48.4700 -100.9780 309° West 498 573 36,000  Level FlightAware
04:27AM 48.5340 -101.0950 310° West 499 574 36,000  Level FlightAware
04:27AM 48.6020 -101.2180 310° West 498 573 36,000  Level FlightAware
04:28AM 48.6750 -101.3540 309° West 498 573 36,000  Level FlightAware
04:29AM 48.7250 -101.4460 310° West 498 573 36,000  Level FlightAware
04:30AM 48.7740 -101.5380 309° West 498 573 36,000  Level FlightAware
04:30AM 48.8560 -101.6890 310° West 497 572 36,000  Level FlightAware
04:31AM 48.9080 -101.7860 309° West 497 572 36,000  Level FlightAware
04:32AM 48.9670 -101.9010 308° West 497 572 36,000  Level FlightAware
04:32AM 49.0150 -101.9950 308° West 497 572 36,000  Level FlightAware
04:33AM 49.0750 -102.1130 308° West 497 572 36,000  Level FlightAware
04:34AM 49.1650 -102.2730 311° West 493 567 36,000  Level FlightAware
04:34AM 49.2080 -102.3560 308° West 492 566 36,000  Level FlightAware
04:35AM 49.2830 -102.5000 309° West 490 564 36,000  Level FlightAware
04:36AM 49.3400 -102.6100 309° West 489 563 36,000  Level FlightAware
04:37AM 49.4040 -102.7350 308° West 488 562 36,000  Level FlightAware
04:37AM 49.4520 -102.8280 308° West 488 562 36,000  Level FlightAware
04:38AM 49.4990 -102.9210 308° West 488 562 36,000  Level FlightAware
04:39AM 49.5460 -103.0140 308° West 488 562 36,000  Level FlightAware
04:40AM 49.6860 -103.2890 308° West 487 560 36,000  Level FlightAware
04:41AM 49.7360 -103.3890 308° West 486 559 36,000  Level FlightAware
04:41AM 49.7950 -103.5060 308° West 485 558 36,000  Level FlightAware
04:42AM 49.8540 -103.6240 308° West 484 557 36,000  Level FlightAware
04:43AM 49.9050 -103.7280 307° West 482 555 36,000  Level FlightAware
04:44AM 49.9640 -103.8470 308° West 480 552 36,000  Level FlightAware
04:44AM 50.0160 -103.9540 307° West 478 550 36,000  Level FlightAware
04:45AM 50.0730 -104.0700 307° West 478 550 36,000  Level FlightAware
04:46AM 50.1390 -104.2060 307° West 476 548 36,000  Level FlightAware
04:46AM 50.1920 -104.3150 307° West 474 545 36,000  Level FlightAware
04:47AM 50.2360 -104.4060 307° West 471 542 36,000  Level FlightAware
04:48AM 50.2990 -104.5360 307° West 470 541 36,000  Level FlightAware
04:48AM 50.3510 -104.6440 307° West 469 540 36,000  Level FlightAware
04:49AM 50.3980 -104.7430 307° West 468 539 36,000  Level FlightAware
04:50AM 50.4510 -104.8580 306° West 468 539 36,000  Level FlightAware
04:51AM 50.5050 -104.9750 306° West 468 539 36,000  Level FlightAware
04:51AM 50.5480 -105.0690 306° West 468 539 36,000  Level FlightAware
04:52AM 50.6160 -105.2050 308° West 467 537 36,000  Level FlightAware
04:53AM 50.6840 -105.3510 306° West 467 537 36,000  Level FlightAware
04:53AM 50.7340 -105.4590 306° West 468 539 36,000  Level FlightAware
04:54AM 50.7930 -105.5860 306° West 470 541 36,000  Level FlightAware
04:55AM 50.8440 -105.6970 306° West 470 541 36,000  Level FlightAware
04:55AM 50.8850 -105.7860 306° West 470 541 36,000  Level FlightAware
04:56AM 50.9470 -105.9230 306° West 469 540 36,000  Level FlightAware
04:57AM 50.9970 -106.0330 306° West 469 540 36,000  Level FlightAware
04:57AM 51.0450 -106.1390 306° West 468 539 36,000  Level FlightAware
04:59AM 51.0220 -106.0890 126° Southeast 469 540 36,000  Level FlightAware
04:59AM 51.0610 -106.1740 306° West 468 539 36,000  Level FlightAware
05:00AM 51.1110 -106.2850 306° West 468 539 36,000  Level FlightAware
05:01AM 51.2790 -106.6620 306° West 467 537 36,000  Level FlightAware
05:01AM 51.3330 -106.7850 305° West 466 536 36,000  Level FlightAware
05:02AM 51.3750 -106.8820 305° West 466 536 36,000  Level FlightAware
05:03AM 51.4350 -107.0180 305° West 464 534 36,000  Level FlightAware
05:03AM 51.4820 -107.1250 305° West 464 534 36,000  Level FlightAware
05:04AM 51.5310 -107.2410 304° West 464 534 36,000  Level FlightAware
05:05AM 51.5710 -107.3390 303° West 464 534 36,000  Level FlightAware
05:05AM 51.6120 -107.4360 304° West 464 534 36,000  Level FlightAware
05:06AM 51.7030 -107.6410 306° West 456 525 36,000  Level FlightAware
05:07AM 51.7430 -107.7370 304° West 456 525 36,000  Level FlightAware
05:08AM 51.7830 -107.8330 304° West 456 525 36,000  Level FlightAware
05:08AM 51.8230 -107.9290 304° West 456 525 36,000  Level FlightAware
05:09AM 51.8740 -108.0500 304° West 456 525 36,000  Level FlightAware
05:10AM 51.9140 -108.1460 304° West 456 525 36,000  Level FlightAware
05:11AM 51.9540 -108.2420 304° West 456 525 36,000  Level FlightAware
05:11AM 51.9940 -108.3390 304° West 456 525 36,000  Level FlightAware
05:12AM 52.0440 -108.4600 304° West 456 525 36,000  Level FlightAware
05:13AM 52.0840 -108.5570 304° West 456 525 36,000  Level FlightAware
05:13AM 52.1240 -108.6530 304° West 456 525 36,000  Level FlightAware
05:14AM 52.1640 -108.7500 304° West 456 525 36,000  Level FlightAware
05:15AM 52.2040 -108.8470 304° West 456 525 36,000  Level FlightAware
05:15AM 52.2450 -108.9440 305° West 456 525 36,000  Level FlightAware
05:16AM 52.3667 -109.3167 305° West 460 529 36,000  Level Edmonton Center
05:17AM 52.4167 -109.4500 302° West 460 529 36,000  Level Winnipeg Center
05:22AM 52.8100 -110.3820 302° West 460 529 36,000  Level FlightAware
05:23AM 52.8460 -110.4760 302° West 460 529 36,000  Level FlightAware
05:24AM 52.9040 -110.6270 303° West 459 528 36,000  Level FlightAware
05:24AM 52.9410 -110.7250 302° West 457 526 36,000  Level FlightAware
05:25AM 53.0060 -110.8910 303° West 457 526 36,000  Level FlightAware
05:26AM 53.0690 -111.0340 306° West 449 517 36,000  Level FlightAware
05:26AM 53.1080 -111.1230 306° West 449 517 36,000  Level FlightAware
05:27AM 53.1690 -111.2640 306° West 447 514 36,000  Level FlightAware
05:28AM 53.2240 -111.3920 306° West 450 518 36,000  Level FlightAware
05:29AM 53.2730 -111.5070 306° West 450 518 36,000  Level FlightAware
05:29AM 53.3270 -111.6340 305° West 451 519 36,000  Level FlightAware
05:30AM 53.3770 -111.7500 306° West 452 520 36,000  Level FlightAware
05:31AM 53.4240 -111.8630 305° West 450 518 36,000  Level FlightAware
05:31AM 53.4770 -111.9890 305° West 450 518 36,000  Level FlightAware
05:32AM 53.5260 -112.1040 306° West 448 516 36,000  Level FlightAware
05:33AM 53.5730 -112.2180 305° West 447 514 36,000  Level FlightAware
05:34AM 53.6260 -112.3460 305° West 446 513 36,000  Level FlightAware
05:34AM 53.6740 -112.4630 305° West 441 507 36,000  Level FlightAware
05:35AM 53.7260 -112.5900 305° West 441 507 36,000  Level FlightAware
05:36AM 53.7690 -112.6940 305° West 441 507 36,000  Level FlightAware
05:36AM 53.8230 -112.8280 304° West 439 505 36,000  Level FlightAware
05:37AM 53.8620 -112.9250 304° West 438 504 36,000  Level FlightAware
05:38AM 53.9170 -113.0610 305° West 436 502 36,000  Level FlightAware
05:39AM 53.9850 -113.2320 304° West 437 503 36,000  Level FlightAware
05:39AM 54.0310 -113.3470 304° West 435 501 36,000  Level FlightAware
05:41AM 54.1200 -113.5710 304° West 431 496 36,000  Level FlightAware
05:42AM 54.1940 -113.7610 304° West 424 488 36,000  Level FlightAware
05:43AM 54.2750 -113.9670 304° West 422 486 36,000  Level FlightAware
05:44AM 54.3100 -114.0640 302° West 422 486 36,000  Level FlightAware
05:45AM 54.3740 -114.2280 304° West 423 487 36,000  Level FlightAware
05:45AM 54.4090 -114.3250 302° West 423 487 36,000  Level FlightAware
05:46AM 54.4440 -114.4220 302° West 423 487 36,000  Level FlightAware
05:47AM 54.4880 -114.5440 302° West 423 487 36,000  Level FlightAware
05:48AM 54.5240 -114.6410 303° West 423 487 36,000  Level FlightAware
05:48AM 54.5590 -114.7380 302° West 423 487 36,000  Level FlightAware
05:49AM 54.5940 -114.8350 302° West 423 487 36,000  Level FlightAware
05:50AM 54.6290 -114.9330 302° West 423 487 36,000  Level FlightAware
05:50AM 54.6730 -115.0550 302° West 423 487 36,000  Level FlightAware
05:51AM 54.7090 -115.1520 303° West 423 487 36,000  Level FlightAware
05:52AM 54.7440 -115.2500 302° West 423 487 36,000  Level FlightAware
05:52AM 54.7790 -115.3480 302° West 423 487 36,000  Level FlightAware
05:53AM 54.8140 -115.4460 302° West 423 487 36,000  Level FlightAware
05:54AM 54.8590 -115.5680 303° West 423 487 36,000  Level FlightAware
05:55AM 55.0167 -116.0833 303° West 420 483 36,000  Level Edmonton Center
05:56AM 55.0833 -116.2500 305° West 420 483 36,000  Level Edmonton Center
05:57AM 55.1333 -116.4167 298° West 420 483 36,000  Level Edmonton Center
05:58AM 55.2000 -116.6167 300° West 420 483 36,000  Level Edmonton Center
05:59AM 55.2667 -116.7833 305° West 420 483 36,000  Level Edmonton Center
06:00AM 55.3167 -116.9500 298° West 410 472 36,000  Level Edmonton Center
06:01AM 55.3833 -117.1167 305° West 410 472 36,000  Level Edmonton Center
06:02AM 55.4333 -117.3000 296° West 410 472 36,000  Level Edmonton Center
06:03AM 55.5000 -117.5000 301° West 410 472 36,000  Level Edmonton Center
06:04AM 55.5500 -117.6667 298° West 410 472 36,000  Level Edmonton Center
06:05AM 55.6167 -117.8333 305° West 410 472 36,000  Level Edmonton Center
06:06AM 55.6667 -118.0167 296° West 410 472 36,000  Level Edmonton Center
06:07AM 55.7333 -118.1833 305° West 410 472 36,000  Level Edmonton Center
06:08AM 55.7833 -118.3500 298° West 410 472 36,000  Level Edmonton Center
06:09AM 55.8500 -118.5667 299° West 410 472 36,000  Level Edmonton Center
06:10AM 55.9000 -118.7333 298° West 410 472 36,000  Level Edmonton Center
06:11AM 55.9667 -118.9167 303° West 410 472 36,000  Level Edmonton Center
06:12AM 56.0167 -119.0833 298° West 410 472 36,000  Level Edmonton Center
06:13AM 56.0833 -119.2667 303° West 410 472 36,000  Level Edmonton Center
06:14AM 56.1333 -119.4333 298° West 410 472 36,000  Level Edmonton Center
06:15AM 56.2000 -119.6167 303° West 410 472 36,000  Level Edmonton Center
06:16AM 56.2333 -119.7833 290° West 410 472 36,000  Level Edmonton Center
06:17AM 56.3000 -119.9667 303° West 410 472 36,000  Level Edmonton Center
06:18AM 56.3667 -120.1833 299° West 410 472 36,000  Level Edmonton Center
06:19AM 56.4167 -120.3667 296° West 410 472 36,000  Level Edmonton Center
06:20AM 56.4667 -120.5500 296° West 410 472 36,000  Level Edmonton Center
06:21AM 56.5167 -120.7167 299° West 410 472 36,000  Level Edmonton Center
06:22AM 56.5833 -120.9000 303° West 410 472 36,000  Level Edmonton Center
06:23AM 56.6333 -121.0833 296° West 410 472 36,000  Level Edmonton Center
06:24AM 56.6833 -121.2667 296° West 410 472 36,000  Level Edmonton Center
06:25AM 56.7333 -121.4500 296° West 410 472 36,000  Level Edmonton Center
06:26AM 56.7833 -121.6333 297° West 410 472 36,000  Level Edmonton Center
06:27AM 56.8333 -121.8500 293° West 410 472 36,000  Level Edmonton Center
06:28AM 56.8833 -122.0167 299° West 410 472 36,000  Level Edmonton Center
06:29AM 56.9333 -122.2167 295° West 410 472 36,000  Level Edmonton Center
06:30AM 56.9833 -122.4000 297° West 410 472 36,000  Level Edmonton Center
06:31AM 57.0500 -122.5833 304° West 410 472 36,000  Level Edmonton Center
06:32AM 57.1000 -122.7667 297° West 410 472 36,000  Level Edmonton Center
06:33AM 57.1333 -122.9833 286° West 410 472 36,000  Level Edmonton Center
06:34AM 57.2000 -123.1833 302° West 410 472 36,000  Level Edmonton Center
06:35AM 57.2500 -123.3667 297° West 420 483 36,000  Level Edmonton Center
06:36AM 57.3000 -123.5500 297° West 410 472 36,000  Level Edmonton Center
06:37AM 57.3500 -123.7500 295° West 410 472 36,100 900 Climbing Edmonton Center
06:38AM 57.4000 -123.9333 297° West 410 472 37,900 900 Climbing Edmonton Center
06:39AM 57.4333 -124.1167 289° West 400 460 38,000  Climbing Edmonton Center
06:40AM 57.5000 -124.3167 302° West 400 460 38,000  Level Edmonton Center
06:41AM 57.5333 -124.5000 289° West 400 460 38,000  Level Edmonton Center
06:42AM 57.6000 -124.6833 304° West 400 460 38,000  Level Edmonton Center
06:43AM 57.6333 -124.9000 286° West 410 472 38,000  Level Edmonton Center
06:44AM 57.6833 -125.1000 295° West 410 472 38,000  Level Edmonton Center
06:45AM 57.7500 -125.2667 307° West 400 460 38,000  Level Edmonton Center
06:47AM 57.8134 -125.5777 291° West  Level FlightAware Approximate
06:54AM 58.1361 -127.0953 294° West  Level FlightAware Approximate
06:55AM 58.1842 -127.3116 293° West  Level FlightAware Approximate
06:56AM 58.2319 -127.5286 293° West  Level FlightAware Approximate
06:57AM 58.2793 -127.7461 293° West  Level FlightAware Approximate
06:58AM 58.3262 -127.9642 292° West  Level FlightAware Approximate
06:59AM 58.3728 -128.1828 292° West  Level FlightAware Approximate
07:00AM 58.4191 -128.4021 292° West  Level FlightAware Approximate
07:01AM 58.4649 -128.6219 292° West  Level FlightAware Approximate
07:02AM 58.5104 -128.8423 292° West  Level FlightAware Approximate
07:03AM 58.5555 -129.0632 291° West  Level FlightAware Approximate
07:04AM 58.6002 -129.2848 291° West  Level FlightAware Approximate
07:05AM 58.6446 -129.5069 291° West  Level FlightAware Approximate
07:06AM 58.6885 -129.7295 291° West  Level FlightAware Approximate
07:07AM 58.7321 -129.9527 291° West  Level FlightAware Approximate
07:08AM 58.7752 -130.1765 291° West  Level FlightAware Approximate
07:09AM 58.8180 -130.4008 290° West  Level FlightAware Approximate
07:10AM 58.8604 -130.6257 290° West  Level FlightAware Approximate
07:11AM 58.9025 -130.8511 290° West  Level FlightAware Approximate
07:12AM 58.9441 -131.0771 290° West  Level FlightAware Approximate
07:13AM 58.9853 -131.3036 290° West  Level FlightAware Approximate
07:14AM 59.0261 -131.5306 289° West  Level FlightAware Approximate
07:15AM 59.0697 -131.7571 291° West  Level FlightAware Approximate
07:16AM 59.1129 -131.9841 290° West  Level FlightAware Approximate
07:17AM 59.1557 -132.2117 290° West  Level FlightAware Approximate
07:18AM 59.1981 -132.4398 290° West  Level FlightAware Approximate
07:19AM 59.2400 -132.6685 290° West  Level FlightAware Approximate
07:20AM 59.2816 -132.8978 290° West  Level FlightAware Approximate
07:21AM 59.3206 -133.1287 288° West  Level FlightAware Approximate
07:22AM 59.3576 -133.3615 287° West  Level FlightAware Approximate
07:23AM 59.3942 -133.5948 287° West  Level FlightAware Approximate
07:24AM 59.4303 -133.8286 287° West  Level FlightAware Approximate
07:25AM 59.4661 -134.0629 287° West  Level FlightAware Approximate
07:25AM 59.4333 -133.8667 286° West 460 529 38,000  Level Anchorage Center
07:26AM 59.5014 -134.2977 287° West  Level FlightAware Approximate
07:26AM 59.4667 -134.1167 285° West 460 529 38,000  Level Anchorage Center
07:27AM 59.5363 -134.5330 286° West  Level FlightAware Approximate
07:27AM 59.5167 -134.3500 293° West 460 529 38,000  Level Anchorage Center
07:28AM 59.5707 -134.7688 286° West  Level FlightAware Approximate
07:28AM 59.5500 -134.6000 285° West 460 529 38,000  Level Anchorage Center
07:29AM 59.6048 -135.0050 286° West  Level FlightAware Approximate
07:29AM 59.5833 -134.8167 287° West 460 529 38,000  Level Anchorage Center
07:30AM 59.6384 -135.2417 286° West  Level FlightAware Approximate
07:30AM 59.6167 -135.0667 285° West 460 529 38,000  Level Anchorage Center
07:31AM 59.6500 -135.3167 285° West 460 529 38,000  Level Anchorage Center
07:33AM 59.7167 -135.8000 285° West 460 529 38,000  Level Anchorage Center
07:34AM 59.7500 -136.0500 285° West 460 529 38,000  Level Anchorage Center
07:35AM 59.7833 -136.3000 285° West 460 529 38,000  Level Anchorage Center
07:36AM 59.8167 -136.5500 285° West 470 541 38,000  Level Anchorage Center
07:37AM 59.8500 -136.8000 285° West 470 541 38,000  Level Anchorage Center
07:38AM 59.8833 -137.0500 285° West 460 529 38,000  Level Anchorage Center
07:39AM 59.9000 -137.3000 278° West 460 529 38,000  Level Anchorage Center
07:40AM 59.9333 -137.5500 285° West 460 529 38,000  Level Anchorage Center
07:42AM 59.9771 -137.9165 284° West  Level FlightAware Approximate
07:42AM 60.0000 -138.0500 284° West 460 529 38,000  Level Anchorage Center
07:43AM 60.0333 -138.3000 285° West 470 541 38,000  Level Anchorage Center
07:44AM 60.0500 -138.5500 278° West 460 529 38,000  Level Anchorage Center
07:46AM 60.0907 -138.9149 283° West  Level FlightAware Approximate
07:46AM 60.1167 -139.0667 283° West 470 541 38,000  Level Anchorage Center
07:47AM 60.1333 -139.3167 278° West 470 541 38,000  Level Anchorage Center
07:48AM 60.1667 -139.5667 285° West 460 529 38,000  Level Anchorage Center
07:49AM 60.1833 -139.8167 278° West 460 529 38,000  Level Anchorage Center
07:50AM 60.2167 -140.0667 285° West 460 529 38,000  Level Anchorage Center
07:51AM 60.2333 -140.3167 278° West 460 529 38,000  Level Anchorage Center
07:52AM 60.2667 -140.5833 284° West 460 529 38,000  Level Anchorage Center
07:53AM 60.2833 -140.8333 278° West 460 529 38,000  Level Anchorage Center
07:54AM 60.3167 -141.0833 285° West 460 529 38,000  Level Anchorage Center
07:55AM 60.3333 -141.3333 278° West 470 541 38,000  Level Anchorage Center
07:56AM 60.3500 -141.6000 277° West 470 541 38,000  Level Anchorage Center
07:57AM 60.3833 -141.8500 285° West 470 541 38,000  Level Anchorage Center
07:58AM 60.4000 -142.1167 277° West 470 541 38,000  Level Anchorage Center
07:59AM 60.4167 -142.3833 277° West 460 529 38,000  Level Anchorage Center
08:00AM 60.4333 -142.6333 278° West 460 529 38,000  Level Anchorage Center
08:01AM 60.4667 -142.9000 284° West 460 529 38,000  Level Anchorage Center
08:02AM 60.4833 -143.1500 278° West 450 518 38,000  Level Anchorage Center
08:03AM 60.5000 -143.4167 277° West 460 529 38,000  Level Anchorage Center
08:04AM 60.5167 -143.6667 278° West 460 529 38,000  Level Anchorage Center
08:05AM 60.5333 -143.9167 278° West 460 529 38,000  Level Anchorage Center
08:06AM 60.5667 -144.1833 284° West 460 529 38,000  Level Anchorage Center
08:07AM 60.5833 -144.4333 278° West 460 529 38,000  Level Anchorage Center
08:08AM 60.6167 -144.6833 285° West 460 529 38,000  Level Anchorage Center
08:09AM 60.6333 -144.9500 277° West 460 529 38,000  Level Anchorage Center
08:10AM 60.6667 -145.2167 284° West 470 541 38,000  Level Anchorage Center
08:11AM 60.6833 -145.4667 278° West 460 529 38,000  Level Anchorage Center
08:13AM 60.6721 -145.8350 267° West  Level FlightAware Approximate
08:15AM 60.7833 -146.5000 274° West 460 529 38,000  Level Anchorage Center
08:16AM 60.8000 -146.7667 277° West 450 518 36,900 -2,160 Descending Anchorage Center
08:17AM 60.8333 -147.0167 285° West 440 506 33,700 -2,640 Descending Anchorage Center
08:20AM 60.7138 -147.6207 274° West  Level FlightAware Approximate
08:23AM 60.9370 -148.3900 285° West 352 405 18,200  Level FlightAware
08:24AM 60.9480 -148.5520 278° West 362 417 16,100 -2,100 Descending FlightAware
08:25AM 60.9620 -148.7450 279° West 361 415 14,600 -1,140 Descending FlightAware
08:26AM 60.9700 -148.8670 278° West 313 360 14,200 -960 Descending FlightAware
08:26AM 60.9790 -149.0010 278° West 300 345 13,300 -1,020 Descending FlightAware
08:27AM 60.9860 -149.1180 277° West 302 348 12,800 -600 Descending FlightAware
08:28AM 60.9920 -149.2120 278° West 302 348 12,600 -660 Descending FlightAware
08:28AM 61.0000 -149.3320 278° West 306 352 12,000 -1,020 Descending FlightAware
08:29AM 61.0080 -149.4610 277° West 302 348 11,200 -900 Descending FlightAware
08:30AM 61.0130 -149.5700 275° West 283 326 10,800 -780 Descending FlightAware
08:31AM 61.0200 -149.7020 276° West 265 305 10,100 -1,020 Descending FlightAware
08:31AM 61.0220 -149.7420 276° West 266 306 9,700 -1,200 Descending FlightAware
08:31AM 61.0250 -149.7990 276° West 267 307 9,300 -900 Descending FlightAware
08:32AM 61.0280 -149.8410 278° West 259 298 9,100 -1,380 Descending FlightAware
08:32AM 61.0320 -149.9170 276° West 251 289 8,300 -1,740 Descending FlightAware
08:32AM 61.0330 -149.9480 274° West 252 290 7,800 -1,920 Descending FlightAware
08:33AM 61.0360 -149.9980 277° West 252 290 7,200 -1,680 Descending FlightAware
08:33AM 61.0380 -150.0450 275° West 243 280 6,700 -1,740 Descending FlightAware
08:34AM 61.0430 -150.1350 277° West 227 261 5,500 -1,740 Descending FlightAware
08:34AM 61.0490 -150.1950 282° West 211 243 4,700 -1,380 Descending FlightAware
08:34AM 61.0550 -150.2220 295° West 205 236 4,500 -1,200 Descending FlightAware
08:35AM 61.0640 -150.2680 292° West 200 230 3,900 -1,380 Descending FlightAware
08:35AM 61.0690 -150.2940 292° West 194 223 3,600 -1,380 Descending FlightAware
08:36AM 61.0830 -150.3400 302° West 197 227 2,900 -1,380 Descending FlightAware
08:36AM 61.0950 -150.3460 346° North 197 227 2,600 -1,380 Descending FlightAware
08:36AM 61.1170 -150.3450 North 197 227 2,000 -1,200 Descending FlightAware
08:36AM 61.1310 -150.3380 14° North 189 217 1,800 -420 Descending FlightAware
08:37AM 61.1400 -150.3160 50° Northeast 186 214 1,800  Level FlightAware
08:37AM 61.1470 -150.2950 55° Northeast 187 215 1,800  Level FlightAware
08:37AM 61.1590 -150.2570 57° Northeast 173 199 1,800 -120 Level FlightAware
08:38AM 61.1680 -150.2150 66° East 159 183 1,700 -600 Descending FlightAware
08:38AM 61.1680 -150.1830 90° East 150 173 1,300 -960 Descending FlightAware
08:39AM 61.1680 -150.1520 90° East 150 173 1,000 -840 Descending FlightAware
08:39AM 61.1680 -150.1130 90° East 153 176 700 -840 Descending FlightAware
08:39AM 61.1680 -150.0810 90° East 144 166 300 -960 Descending FlightAware
08:40AM 61.1680 -150.0430 90° East 144 166 -600 Descending FlightAware